Time;durP1;ratioP1;P1;durP2;ratioP2;P2;SDS_P1;SDS_P2;PMS_P1;PMS_P2;Temp;Humidity;BMP_temperature;BMP_pressure;BME280_temperature;BME280_humidity;BME280_pressure;Samples;Min_cycle;Max_cycle;Signal;HPM_P1;HPM_P2
2022/10/23 00:02:40;;;;;;;106.07;43.80;;;10.30;99.90;;;;;;4361691;28;661508;-71
2022/10/23 00:05:28;;;;;;;108.40;45.63;;;10.30;99.90;;;;;;4374487;28;661831;-72
2022/10/23 00:08:15;;;;;;;106.47;44.93;;;10.20;99.90;;;;;;4365414;28;662243;-71
2022/10/23 00:11:06;;;;;;;108.27;46.53;;;10.30;99.90;;;;;;4367092;28;662225;-71
2022/10/23 00:13:54;;;;;;;111.25;46.35;;;10.20;99.90;;;;;;4346811;28;661658;-72
2022/10/23 00:16:42;;;;;;;88.90;38.30;;;10.20;99.90;;;;;;4350613;28;662219;-72
2022/10/23 00:19:30;;;;;;;102.60;43.83;;;10.30;99.90;;;;;;4367298;28;660614;-71
2022/10/23 00:22:17;;;;;;;110.17;46.37;;;10.30;99.90;;;;;;4373199;28;661521;-72
2022/10/23 00:25:05;;;;;;;106.83;44.57;;;10.30;99.90;;;;;;4370924;28;661559;-72
2022/10/23 00:27:52;;;;;;;106.28;46.05;;;10.20;99.90;;;;;;4343160;28;661815;-72
2022/10/23 00:30:39;;;;;;;112.30;45.10;;;10.20;99.90;;;;;;4369512;28;662182;-72
2022/10/23 00:33:28;;;;;;;102.73;44.93;;;10.20;99.90;;;;;;4352496;28;661927;-72
2022/10/23 00:36:16;;;;;;;108.83;45.23;;;10.20;99.90;;;;;;4352608;28;661780;-71
2022/10/23 00:39:03;;;;;;;106.40;45.80;;;10.20;99.90;;;;;;4369525;28;662091;-71
2022/10/23 00:41:51;;;;;;;106.67;45.07;;;10.20;99.90;;;;;;4337435;28;661614;-72
2022/10/23 00:45:14;;;;;;;100.43;44.07;;;10.20;99.90;;;;;;4372856;28;662720;-72
2022/10/23 00:48:01;;;;;;;110.07;45.60;;;10.30;99.90;;;;;;4326668;28;662829;-71
2022/10/23 00:50:50;;;;;;;105.07;45.00;;;10.30;99.90;;;;;;4374972;28;662463;-71
2022/10/23 00:53:37;;;;;;;108.07;44.47;;;10.30;99.90;;;;;;4353934;28;662527;-72
2022/10/23 00:56:25;;;;;;;101.10;45.40;;;10.30;99.90;;;;;;4369326;28;661404;-72
2022/10/23 00:59:12;;;;;;;114.33;48.43;;;10.30;99.90;;;;;;4344710;28;662835;-71
2022/10/23 01:01:59;;;;;;;112.80;48.43;;;10.30;99.90;;;;;;4369628;28;662458;-71
2022/10/23 01:04:46;;;;;;;128.87;52.03;;;10.30;99.90;;;;;;4350904;28;661826;-71
2022/10/23 01:07:36;;;;;;;111.77;47.50;;;10.30;99.90;;;;;;4364293;28;662434;-72
2022/10/23 01:10:28;;;;;;;116.30;48.30;;;10.30;99.90;;;;;;4338432;28;662198;-72
2022/10/23 01:13:17;;;;;;;112.40;48.03;;;10.20;99.90;;;;;;4337564;28;661967;-71
2022/10/23 01:16:07;;;;;;;96.57;43.80;;;10.30;99.90;;;;;;4374570;28;662129;-71
2022/10/23 01:18:58;;;;;;;103.60;45.40;;;10.30;99.90;;;;;;4348317;28;661302;-71
2022/10/23 01:21:53;;;;;;;113.00;45.90;;;10.30;99.90;;;;;;4328219;28;661854;-70
2022/10/23 01:24:46;;;;;;;109.90;46.83;;;10.30;99.90;;;;;;4346490;28;662344;-70
2022/10/23 01:27:35;;;;;;;118.20;48.77;;;10.30;99.90;;;;;;4344901;28;662518;-71
2022/10/23 01:30:22;;;;;;;116.97;48.10;;;10.30;99.90;;;;;;4344202;28;662245;-71
2022/10/23 01:33:10;;;;;;;113.87;49.23;;;10.30;99.90;;;;;;4369893;28;661793;-72
2022/10/23 01:36:00;;;;;;;117.40;49.40;;;10.30;99.90;;;;;;4346804;28;662419;-71
2022/10/23 01:38:50;;;;;;;120.45;49.47;;;10.30;99.90;;;;;;4347630;28;662133;-71
2022/10/23 01:41:40;;;;;;;110.10;48.90;;;10.30;99.90;;;;;;4343944;28;662965;-72
2022/10/23 01:44:30;;;;;;;116.53;48.17;;;10.30;99.90;;;;;;4341655;28;662403;-70
2022/10/23 01:47:19;;;;;;;122.27;49.07;;;10.30;99.90;;;;;;4341484;28;663724;-71
2022/10/23 01:50:08;;;;;;;122.10;49.90;;;10.20;99.90;;;;;;4345643;28;664238;-71
2022/10/23 01:52:55;;;;;;;117.97;52.17;;;10.20;99.90;;;;;;4363525;28;662364;-71
2022/10/23 01:55:42;;;;;;;124.50;51.50;;;10.20;99.90;;;;;;4371309;28;662439;-71
2022/10/23 01:58:29;;;;;;;112.10;49.27;;;10.20;99.90;;;;;;4366662;28;661801;-72
2022/10/23 02:01:18;;;;;;;129.50;52.57;;;10.20;99.90;;;;;;4344255;28;662261;-72
2022/10/23 02:04:06;;;;;;;124.57;52.73;;;10.10;99.90;;;;;;4349076;28;661488;-71
2022/10/23 02:06:53;;;;;;;126.27;52.80;;;10.20;99.90;;;;;;4367230;28;662386;-71
2022/10/23 02:09:40;;;;;;;121.23;51.60;;;10.20;99.90;;;;;;4351574;28;661783;-71
2022/10/23 02:12:31;;;;;;;122.27;51.03;;;10.10;99.90;;;;;;4370510;28;662502;-72
2022/10/23 02:15:21;;;;;;;117.47;49.80;;;10.20;99.90;;;;;;4344393;28;662602;-71
2022/10/23 02:18:13;;;;;;;121.80;51.57;;;10.20;99.90;;;;;;4339110;28;662936;-71
2022/10/23 02:21:03;;;;;;;109.32;49.85;;;10.20;99.90;;;;;;4319058;28;661845;-71
2022/10/23 02:23:52;;;;;;;111.03;48.37;;;10.20;99.90;;;;;;4349631;28;661790;-71
2022/10/23 02:26:41;;;;;;;105.50;46.60;;;10.20;99.90;;;;;;4366971;28;662156;-72
2022/10/23 02:29:30;;;;;;;118.10;50.50;;;10.20;99.90;;;;;;4344196;28;662840;-72
2022/10/23 02:32:17;;;;;;;113.03;50.17;;;10.10;99.90;;;;;;4346208;28;662615;-72
2022/10/23 02:35:07;;;;;;;110.87;49.07;;;10.20;99.90;;;;;;4367165;28;662123;-71
2022/10/23 02:37:54;;;;;;;107.53;48.40;;;10.10;99.90;;;;;;4342118;28;661777;-72
2022/10/23 02:40:41;;;;;;;105.27;45.80;;;10.20;99.90;;;;;;4347654;28;661945;-72
2022/10/23 02:43:30;;;;;;;103.27;45.37;;;10.10;99.90;;;;;;4364295;28;661210;-72
2022/10/23 02:46:21;;;;;;;108.90;50.05;;;10.10;99.90;;;;;;4347574;28;661774;-71
2022/10/23 02:49:12;;;;;;;106.00;46.15;;;10.10;99.90;;;;;;4344229;28;662150;-72
2022/10/23 02:52:06;;;;;;;99.90;43.83;;;10.10;99.90;;;;;;4342691;28;662814;-72
2022/10/23 02:55:02;;;;;;;91.87;42.53;;;10.10;99.90;;;;;;4338187;28;661390;-72
2022/10/23 02:57:53;;;;;;;98.13;46.87;;;10.10;99.90;;;;;;4341677;28;660451;-71
2022/10/23 03:00:42;;;;;;;99.50;46.67;;;10.00;99.90;;;;;;4362435;28;661143;-71
2022/10/23 03:03:32;;;;;;;96.97;44.80;;;10.00;99.90;;;;;;4366790;28;660367;-71
2022/10/23 03:06:19;;;;;;;88.10;36.30;;;10.00;99.90;;;;;;4346886;28;660466;-71
2022/10/23 03:09:08;;;;;;;99.70;42.43;;;10.00;99.90;;;;;;4348866;28;660821;-71
2022/10/23 03:11:55;;;;;;;94.38;41.53;;;10.00;99.90;;;;;;4348052;28;660717;-70
2022/10/23 03:14:42;;;;;;;97.67;45.67;;;10.10;99.90;;;;;;4372441;28;661572;-71
2022/10/23 03:17:30;;;;;;;92.90;43.77;;;10.10;99.90;;;;;;4366773;28;661035;-71
2022/10/23 03:20:18;;;;;;;95.10;41.43;;;10.10;99.90;;;;;;4370295;28;661460;-71
2022/10/23 03:23:05;;;;;;;92.37;40.90;;;10.10;99.90;;;;;;4360272;28;660448;-71
2022/10/23 03:25:55;;;;;;;83.63;41.07;;;10.10;99.90;;;;;;4369835;28;661140;-71
2022/10/23 03:28:42;;;;;;;85.83;41.23;;;10.10;99.90;;;;;;4339337;28;661051;-72
2022/10/23 03:31:29;;;;;;;89.13;41.67;;;10.10;99.90;;;;;;4367035;28;660374;-71
2022/10/23 03:34:18;;;;;;;83.17;40.13;;;10.10;99.90;;;;;;4337522;28;661206;-71
2022/10/23 03:37:05;;;;;;;73.40;33.33;;;10.10;99.90;;;;;;4349385;28;660326;-71
2022/10/23 03:39:52;;;;;;;61.17;30.90;;;10.10;99.90;;;;;;4362602;28;661208;-71
2022/10/23 03:42:42;;;;;;;63.47;32.20;;;10.10;99.90;;;;;;4364334;28;661383;-71
2022/10/23 03:45:29;;;;;;;60.23;30.23;;;10.20;99.90;;;;;;4365037;28;660846;-72
2022/10/23 03:48:16;;;;;;;63.53;31.43;;;10.20;99.90;;;;;;4348413;28;660951;-71
2022/10/23 03:51:04;;;;;;;60.50;30.40;;;10.20;99.90;;;;;;4360734;28;660637;-70
2022/10/23 03:53:51;;;;;;;65.00;30.73;;;10.20;99.90;;;;;;4343478;28;661131;-72
2022/10/23 03:56:38;;;;;;;68.53;31.10;;;10.20;99.90;;;;;;4363852;28;661307;-72
2022/10/23 03:59:27;;;;;;;70.87;32.60;;;10.20;99.90;;;;;;4347123;28;661098;-71
2022/10/23 04:02:14;;;;;;;71.33;33.80;;;10.20;99.90;;;;;;4365585;28;660761;-72
2022/10/23 04:05:01;;;;;;;59.93;32.53;;;10.20;99.90;;;;;;4345707;28;661133;-72
2022/10/23 04:07:48;;;;;;;62.17;31.37;;;10.20;99.90;;;;;;4363366;28;661717;-72
2022/10/23 04:10:35;;;;;;;67.40;31.43;;;10.20;99.90;;;;;;4344844;28;660537;-71
2022/10/23 04:13:23;;;;;;;64.70;34.60;;;10.10;99.90;;;;;;4369146;28;662166;-71
2022/10/23 04:16:12;;;;;;;61.20;30.53;;;10.10;99.90;;;;;;4357887;28;661136;-72
2022/10/23 04:18:59;;;;;;;61.57;30.27;;;10.10;99.90;;;;;;4368953;28;660613;-72
2022/10/23 04:21:46;;;;;;;58.33;28.27;;;10.10;99.90;;;;;;4348360;28;661173;-71
2022/10/23 04:24:33;;;;;;;58.53;28.23;;;10.10;99.90;;;;;;4368175;28;661194;-72
2022/10/23 04:27:20;;;;;;;53.23;27.90;;;10.10;99.90;;;;;;4353018;28;661387;-72
2022/10/23 04:30:09;;;;;;;55.03;26.83;;;10.10;99.90;;;;;;4368273;28;661377;-72
2022/10/23 04:32:57;;;;;;;50.47;25.47;;;10.10;99.90;;;;;;4349537;28;661081;-71
2022/10/23 04:35:45;;;;;;;50.10;25.37;;;10.20;99.90;;;;;;4366037;28;660930;-71
2022/10/23 04:38:32;;;;;;;44.50;22.97;;;10.20;99.90;;;;;;4367788;28;661835;-72
2022/10/23 04:41:19;;;;;;;45.43;22.60;;;10.20;99.90;;;;;;4369990;28;660993;-72
2022/10/23 04:44:07;;;;;;;44.50;23.00;;;10.30;99.90;;;;;;4351925;28;661354;-72
2022/10/23 04:46:54;;;;;;;51.43;23.43;;;10.30;99.90;;;;;;4365254;28;660733;-72
2022/10/23 04:49:42;;;;;;;47.90;24.10;;;10.30;99.90;;;;;;4349831;28;660891;-72
2022/10/23 04:52:30;;;;;;;45.27;22.50;;;10.30;99.90;;;;;;4366537;28;660594;-71
2022/10/23 04:55:17;;;;;;;42.13;22.33;;;10.30;99.90;;;;;;4373447;28;660525;-72
2022/10/23 04:58:05;;;;;;;45.77;22.83;;;10.40;99.90;;;;;;4367448;28;661227;-71
2022/10/23 05:00:52;;;;;;;45.83;22.90;;;10.30;99.90;;;;;;4370457;28;661473;-71
2022/10/23 05:03:39;;;;;;;42.33;22.07;;;10.30;99.90;;;;;;4366813;28;660629;-72
2022/10/23 05:06:28;;;;;;;43.13;21.37;;;10.40;99.90;;;;;;4350379;28;662289;-72
2022/10/23 05:09:15;;;;;;;44.33;21.47;;;10.40;99.90;;;;;;4349997;28;660542;-71
2022/10/23 05:12:02;;;;;;;39.72;20.52;;;10.30;99.90;;;;;;4370709;28;662680;-72
2022/10/23 05:14:49;;;;;;;38.87;20.87;;;10.30;99.90;;;;;;4365180;28;661263;-72
2022/10/23 05:17:37;;;;;;;44.77;20.63;;;10.40;99.90;;;;;;4351216;28;660635;-72
2022/10/23 05:20:26;;;;;;;37.67;21.23;;;10.40;99.90;;;;;;4365146;28;660492;-72
2022/10/23 05:23:15;;;;;;;42.57;23.53;;;10.40;99.90;;;;;;4347385;28;661869;-72
2022/10/23 05:26:02;;;;;;;39.70;20.80;;;10.40;99.90;;;;;;4336299;28;661623;-72
2022/10/23 05:28:49;;;;;;;33.23;19.87;;;10.50;99.90;;;;;;4368578;28;660746;-72
2022/10/23 05:31:36;;;;;;;35.93;20.80;;;10.50;99.90;;;;;;4346098;28;662042;-72
2022/10/23 05:34:24;;;;;;;37.03;20.57;;;10.50;99.90;;;;;;4367393;28;661388;-72
2022/10/23 05:37:12;;;;;;;42.47;23.27;;;10.50;99.90;;;;;;4344821;28;660353;-72
2022/10/23 05:40:01;;;;;;;42.33;22.30;;;10.50;99.90;;;;;;4368947;28;660894;-72
2022/10/23 05:42:48;;;;;;;42.83;23.63;;;10.60;99.90;;;;;;4345539;28;661518;-71
2022/10/23 05:45:35;;;;;;;43.50;21.73;;;10.60;99.90;;;;;;4350734;28;661089;-72
2022/10/23 05:48:22;;;;;;;39.77;22.03;;;10.60;99.90;;;;;;4372785;28;661699;-72
2022/10/23 05:51:10;;;;;;;36.73;19.97;;;10.70;99.90;;;;;;4368563;28;661611;-72
2022/10/23 05:53:58;;;;;;;38.57;19.57;;;10.70;99.90;;;;;;4346974;28;661712;-72
2022/10/23 05:56:47;;;;;;;35.00;19.97;;;10.70;99.90;;;;;;4358537;28;661111;-71
2022/10/23 05:59:34;;;;;;;38.10;20.33;;;10.70;99.90;;;;;;4362244;28;661233;-72
2022/10/23 06:02:21;;;;;;;36.90;20.27;;;10.80;99.90;;;;;;4348092;28;660905;-72
2022/10/23 06:05:09;;;;;;;39.90;20.60;;;10.90;99.90;;;;;;4369140;28;661814;-72
2022/10/23 06:07:57;;;;;;;38.90;20.63;;;10.80;99.90;;;;;;4348711;28;661118;-72
2022/10/23 06:10:44;;;;;;;43.57;22.23;;;10.80;99.90;;;;;;4369160;28;661174;-72
2022/10/23 06:13:33;;;;;;;50.77;24.90;;;10.60;99.90;;;;;;4344955;28;660798;-72
2022/10/23 06:16:21;;;;;;;42.33;22.97;;;10.70;99.90;;;;;;4348622;28;661438;-72
2022/10/23 06:19:10;;;;;;;41.73;22.57;;;10.80;99.90;;;;;;4369344;28;662728;-72
2022/10/23 06:21:57;;;;;;;47.10;22.63;;;10.90;99.90;;;;;;4342790;28;661164;-72
2022/10/23 06:24:44;;;;;;;43.87;24.03;;;10.70;99.90;;;;;;4363382;28;661248;-71
2022/10/23 06:27:31;;;;;;;44.10;24.37;;;10.80;99.90;;;;;;4348076;28;660581;-72
2022/10/23 06:30:20;;;;;;;48.87;24.90;;;11.00;99.90;;;;;;4364464;28;660891;-71
2022/10/23 06:33:07;;;;;;;55.30;26.97;;;10.90;99.90;;;;;;4343858;28;662583;-71
2022/10/23 06:35:56;;;;;;;57.20;27.07;;;11.00;99.90;;;;;;4367441;28;660488;-72
2022/10/23 06:38:43;;;;;;;59.97;29.60;;;11.00;99.90;;;;;;4348161;28;661848;-71
2022/10/23 06:41:30;;;;;;;57.03;28.33;;;10.90;99.90;;;;;;4353834;28;660273;-71
2022/10/23 06:44:17;;;;;;;52.83;28.73;;;10.90;99.90;;;;;;4369918;28;662037;-71
2022/10/23 06:47:08;;;;;;;50.63;27.93;;;10.80;99.90;;;;;;4365950;28;660329;-71
2022/10/23 06:49:55;;;;;;;64.87;31.93;;;10.80;99.90;;;;;;4324159;28;660284;-72
2022/10/23 06:52:43;;;;;;;58.13;27.60;;;10.80;99.90;;;;;;4368574;28;661681;-71
2022/10/23 06:55:30;;;;;;;54.23;27.07;;;10.80;99.90;;;;;;4359279;28;661259;-71
2022/10/23 06:58:17;;;;;;;52.63;26.77;;;10.70;99.90;;;;;;4371989;28;661039;-70
2022/10/23 07:01:06;;;;;;;50.17;25.90;;;10.70;99.90;;;;;;4364942;28;661021;-71
2022/10/23 07:03:54;;;;;;;58.53;26.40;;;10.70;99.90;;;;;;4342237;28;660877;-71
2022/10/23 07:06:42;;;;;;;67.03;29.80;;;10.70;99.90;;;;;;4347011;28;660774;-71
2022/10/23 07:09:29;;;;;;;61.30;29.47;;;10.80;99.90;;;;;;4361373;28;661038;-72
2022/10/23 07:12:16;;;;;;;59.40;28.17;;;10.90;99.90;;;;;;4347975;28;660435;-71
2022/10/23 07:15:04;;;;;;;63.83;31.07;;;10.80;99.90;;;;;;4370791;28;661275;-72
2022/10/23 07:17:51;;;;;;;62.30;30.13;;;10.90;99.90;;;;;;4346501;28;660467;-71
2022/10/23 07:20:39;;;;;;;53.00;28.93;;;11.10;99.90;;;;;;4370477;28;661731;-72
2022/10/23 07:23:27;;;;;;;51.13;27.23;;;11.00;99.90;;;;;;4348814;28;660599;-71
2022/10/23 07:26:15;;;;;;;57.60;28.90;;;11.20;99.90;;;;;;4366802;28;660350;-71
2022/10/23 07:29:02;;;;;;;55.50;28.03;;;11.20;99.90;;;;;;4346672;28;661820;-72
2022/10/23 07:31:49;;;;;;;50.37;27.93;;;11.50;99.90;;;;;;4366841;28;661025;-71
2022/10/23 07:34:37;;;;;;;51.03;25.17;;;11.70;99.90;;;;;;4345418;28;662079;-71
2022/10/23 07:37:25;;;;;;;55.67;30.57;;;11.70;99.90;;;;;;4366729;28;660937;-72
2022/10/23 07:40:13;;;;;;;63.20;31.00;;;11.50;99.90;;;;;;4348059;28;660854;-71
2022/10/23 07:43:00;;;;;;;58.07;29.30;;;11.60;99.90;;;;;;4360156;28;661817;-71
2022/10/23 07:45:48;;;;;;;53.50;27.27;;;11.60;99.90;;;;;;4370072;28;661250;-71
2022/10/23 07:48:35;;;;;;;61.75;30.05;;;11.90;99.90;;;;;;4346406;28;660594;-71
2022/10/23 07:51:22;;;;;;;61.20;32.03;;;11.70;99.90;;;;;;4366958;28;661645;-71
2022/10/23 07:54:12;;;;;;;53.57;29.23;;;11.80;99.90;;;;;;4364789;28;661179;-71
2022/10/23 07:56:59;;;;;;;58.63;30.40;;;11.90;99.90;;;;;;4365860;28;660389;-72
2022/10/23 07:59:46;;;;;;;62.10;32.20;;;11.80;99.90;;;;;;4349532;28;661304;-71
2022/10/23 08:02:33;;;;;;;59.43;31.10;;;11.70;99.90;;;;;;4372192;28;660319;-72
2022/10/23 08:05:20;;;;;;;58.43;30.77;;;11.90;99.90;;;;;;4346339;28;660501;-71
2022/10/23 08:08:08;;;;;;;62.33;29.97;;;12.10;99.90;;;;;;4368232;28;661828;-72
2022/10/23 08:10:56;;;;;;;51.23;26.63;;;12.20;99.90;;;;;;4359340;28;660769;-71
2022/10/23 08:13:44;;;;;;;52.23;25.37;;;12.20;99.90;;;;;;4360825;28;660920;-72
2022/10/23 08:16:31;;;;;;;44.90;23.23;;;12.60;99.90;;;;;;4343440;28;660944;-71
2022/10/23 08:19:18;;;;;;;48.80;24.40;;;12.60;99.90;;;;;;4367928;28;661547;-71
2022/10/23 08:22:05;;;;;;;49.07;25.10;;;12.60;99.90;;;;;;4339179;28;660652;-70
2022/10/23 08:24:53;;;;;;;51.10;25.83;;;12.50;99.90;;;;;;4363788;28;661280;-71
2022/10/23 08:27:42;;;;;;;48.93;25.87;;;12.50;99.90;;;;;;4360211;28;660720;-70
2022/10/23 08:30:29;;;;;;;36.17;20.30;;;12.30;99.90;;;;;;4362808;28;660649;-70
2022/10/23 08:33:16;;;;;;;41.43;23.77;;;12.40;99.90;;;;;;4337404;28;661484;-70
2022/10/23 08:36:03;;;;;;;48.00;24.13;;;12.10;99.90;;;;;;4369238;28;663026;-70
2022/10/23 08:38:52;;;;;;;46.03;26.10;;;12.10;99.90;;;;;;4346401;28;661107;-71
2022/10/23 08:41:41;;;;;;;49.57;27.03;;;12.20;99.90;;;;;;4360003;28;660581;-71
2022/10/23 08:44:31;;;;;;;60.87;28.77;;;12.10;99.90;;;;;;4343934;28;661032;-71
2022/10/23 08:47:19;;;;;;;46.83;25.27;;;12.10;99.90;;;;;;4344231;28;661546;-71
2022/10/23 08:50:10;;;;;;;39.50;18.53;;;12.20;99.90;;;;;;4340541;28;660996;-71
2022/10/23 08:53:00;;;;;;;41.70;20.97;;;12.60;99.90;;;;;;4341568;28;661895;-70
2022/10/23 08:55:52;;;;;;;44.80;22.77;;;12.50;99.90;;;;;;4346984;28;661687;-71
2022/10/23 08:58:40;;;;;;;41.50;22.90;;;12.60;99.90;;;;;;4345712;28;660641;-71
2022/10/23 09:01:36;;;;;;;43.10;22.70;;;12.50;99.90;;;;;;4350109;28;661540;-71
2022/10/23 09:04:23;;;;;;;46.63;24.40;;;12.60;99.90;;;;;;4341210;28;661302;-71
2022/10/23 09:07:15;;;;;;;43.40;24.30;;;12.60;99.90;;;;;;4349485;28;660827;-71
2022/10/23 09:10:35;;;;;;;44.50;24.17;;;12.70;99.90;;;;;;4348411;28;661087;-71
2022/10/23 09:13:40;;;;;;;39.30;22.27;;;13.00;99.90;;;;;;4347807;28;661370;-72
2022/10/23 09:16:37;;;;;;;43.03;23.30;;;13.00;99.90;;;;;;4320240;28;661755;-71
2022/10/23 09:19:25;;;;;;;41.53;22.33;;;12.90;99.90;;;;;;4343751;28;661195;-71
2022/10/23 09:22:13;;;;;;;43.97;22.70;;;13.30;99.90;;;;;;4336349;28;663271;-71
2022/10/23 09:25:00;;;;;;;38.43;21.07;;;13.80;99.90;;;;;;4359706;28;661301;-71
2022/10/23 09:27:48;;;;;;;40.17;21.77;;;14.20;99.90;;;;;;4375402;28;660824;-71
2022/10/23 09:30:36;;;;;;;37.97;21.93;;;14.40;99.90;;;;;;4362292;28;660637;-69
2022/10/23 09:33:25;;;;;;;40.40;21.17;;;14.30;99.90;;;;;;4365133;28;662541;-69
2022/10/23 09:36:18;;;;;;;35.80;20.30;;;14.60;99.90;;;;;;4341133;28;662053;-69
2022/10/23 09:39:19;;;;;;;37.40;20.73;;;14.90;99.90;;;;;;4317737;28;661374;-69
2022/10/23 09:42:14;;;;;;;37.87;20.17;;;14.50;99.90;;;;;;4338952;28;660660;-69
2022/10/23 09:45:01;;;;;;;37.35;21.67;;;14.70;99.90;;;;;;4323309;28;661061;-69
2022/10/23 09:47:48;;;;;;;34.13;19.97;;;14.50;99.90;;;;;;4368943;28;660671;-69
2022/10/23 09:50:37;;;;;;;36.30;19.07;;;14.80;99.90;;;;;;4341703;28;661404;-69
2022/10/23 09:53:30;;;;;;;32.80;17.40;;;15.30;99.90;;;;;;4363114;28;661373;-69
2022/10/23 09:56:25;;;;;;;30.07;17.13;;;15.20;99.90;;;;;;4351491;28;661076;-69
2022/10/23 09:59:20;;;;;;;33.87;15.97;;;14.90;99.90;;;;;;4325222;28;660727;-69
2022/10/23 10:02:19;;;;;;;29.27;15.60;;;15.30;99.90;;;;;;4339548;28;660616;-68
2022/10/23 10:05:22;;;;;;;29.13;15.03;;;15.50;99.90;;;;;;4305916;28;661072;-69
2022/10/23 10:08:15;;;;;;;29.60;16.60;;;15.30;99.90;;;;;;4340168;28;660840;-69
2022/10/23 10:11:05;;;;;;;26.97;14.43;;;15.70;99.90;;;;;;4348119;28;660654;-69
2022/10/23 10:14:22;;;;;;;28.63;16.90;;;15.80;99.90;;;;;;4344956;28;660964;-68
2022/10/23 10:17:14;;;;;;;30.87;16.43;;;15.80;99.90;;;;;;4328255;28;661272;-69
2022/10/23 10:20:18;;;;;;;29.13;17.50;;;15.90;99.90;;;;;;4349467;28;660690;-69
2022/10/23 10:23:07;;;;;;;27.77;17.60;;;15.20;99.90;;;;;;4336368;28;660762;-69
2022/10/23 10:26:00;;;;;;;32.07;17.77;;;15.20;99.90;;;;;;4371654;28;660883;-69
2022/10/23 10:28:56;;;;;;;29.03;17.07;;;14.50;99.90;;;;;;4345229;28;660949;-69
2022/10/23 10:31:48;;;;;;;29.63;16.97;;;14.60;99.90;;;;;;4339726;28;661146;-69
2022/10/23 10:34:40;;;;;;;24.93;13.27;;;15.20;99.90;;;;;;4319492;28;661571;-69
2022/10/23 10:37:29;;;;;;;20.00;12.40;;;15.70;99.90;;;;;;4342745;28;662146;-69
2022/10/23 10:40:19;;;;;;;22.10;11.50;;;15.90;99.90;;;;;;4345598;28;660941;-68
2022/10/23 10:43:15;;;;;;;25.07;13.27;;;16.90;99.90;;;;;;4350186;28;660746;-69
2022/10/23 10:46:05;;;;;;;14.63;8.93;;;17.50;99.90;;;;;;4318736;28;661311;-68
2022/10/23 10:48:56;;;;;;;23.47;12.20;;;17.70;99.90;;;;;;4344320;28;659871;-68
2022/10/23 10:51:46;;;;;;;17.87;9.10;;;17.30;99.90;;;;;;4343187;28;660877;-68
2022/10/23 10:54:39;;;;;;;20.67;11.87;;;17.20;99.90;;;;;;4347951;28;661027;-69
2022/10/23 10:57:32;;;;;;;19.37;11.13;;;17.10;99.90;;;;;;4311989;28;661416;-69
2022/10/23 11:00:21;;;;;;;17.97;10.30;;;17.10;99.90;;;;;;4343593;28;660955;-69
2022/10/23 11:03:12;;;;;;;14.17;8.63;;;17.10;99.90;;;;;;4349278;28;660715;-69
2022/10/23 11:06:00;;;;;;;14.27;8.43;;;17.20;99.90;;;;;;4342775;28;659603;-69
2022/10/23 11:08:47;;;;;;;12.33;7.80;;;17.50;99.90;;;;;;4375250;28;660801;-69
2022/10/23 11:11:39;;;;;;;15.53;8.03;;;18.30;99.90;;;;;;4358388;28;659642;-69
2022/10/23 11:14:27;;;;;;;15.13;8.23;;;18.10;99.90;;;;;;4350530;28;660713;-68
2022/10/23 11:17:18;;;;;;;14.80;8.47;;;18.40;99.90;;;;;;4368210;28;660478;-69
2022/10/23 11:20:08;;;;;;;15.87;8.57;;;18.50;99.90;;;;;;4335123;28;660804;-69
2022/10/23 11:22:57;;;;;;;16.33;7.93;;;18.40;99.90;;;;;;4348706;28;660055;-69
2022/10/23 11:25:54;;;;;;;9.57;6.87;;;18.90;99.90;;;;;;4368991;28;659796;-69
2022/10/23 11:28:50;;;;;;;12.40;7.00;;;18.70;99.90;;;;;;4350059;28;658320;-69
2022/10/23 11:31:39;;;;;;;10.60;6.27;;;18.80;99.90;;;;;;4320958;28;660314;-68
2022/10/23 11:35:10;;;;;;;9.20;6.60;;;19.40;99.90;;;;;;4343636;28;660012;-68
2022/10/23 11:37:59;;;;;;;11.30;6.73;;;19.00;99.90;;;;;;4246814;29;659683;-69
2022/10/23 11:40:47;;;;;;;10.73;6.37;;;19.20;99.90;;;;;;4328884;28;659737;-69
2022/10/23 11:43:46;;;;;;;10.47;6.17;;;19.20;99.90;;;;;;4353956;28;659556;-68
2022/10/23 11:46:34;;;;;;;11.23;7.80;;;18.70;99.90;;;;;;4330647;28;660554;-69
2022/10/23 11:49:22;;;;;;;9.93;5.93;;;19.00;99.90;;;;;;4334291;28;663689;-68
2022/10/23 11:52:23;;;;;;;9.73;6.17;;;18.20;99.90;;;;;;4341843;28;658809;-68
2022/10/23 11:55:17;;;;;;;8.67;5.60;;;18.30;99.90;;;;;;4321650;28;658933;-68
2022/10/23 11:58:20;;;;;;;9.77;4.70;;;19.50;99.90;;;;;;4328299;28;658894;-68
2022/10/23 12:01:21;;;;;;;7.17;4.97;;;18.80;99.70;;;;;;4330687;28;658628;-68
2022/10/23 12:04:18;;;;;;;7.05;4.80;;;18.00;99.90;;;;;;4329186;28;658829;-68
2022/10/23 12:07:15;;;;;;;11.23;5.90;;;17.00;99.90;;;;;;4320103;28;659143;-68
2022/10/23 12:10:04;;;;;;;11.53;5.83;;;16.80;99.90;;;;;;4300565;28;660045;-68
2022/10/23 12:12:55;;;;;;;7.90;5.17;;;17.00;99.90;;;;;;4333083;28;659659;-69
2022/10/23 12:15:43;;;;;;;6.87;5.30;;;17.90;99.90;;;;;;4332530;28;658808;-69
2022/10/23 12:18:30;;;;;;;9.07;5.30;;;17.50;99.90;;;;;;4343712;28;658532;-68
2022/10/23 12:21:21;;;;;;;10.40;5.67;;;17.20;99.90;;;;;;4351234;28;659680;-68
2022/10/23 12:24:22;;;;;;;9.85;5.75;;;16.60;99.90;;;;;;4323074;28;661217;-69
2022/10/23 12:27:21;;;;;;;9.70;6.13;;;16.50;99.90;;;;;;4320104;28;658620;-68
2022/10/23 12:30:21;;;;;;;13.03;5.83;;;16.50;99.90;;;;;;4318439;28;659579;-68
2022/10/23 12:33:14;;;;;;;8.93;5.83;;;16.50;99.90;;;;;;4320404;28;659618;-69
2022/10/23 12:36:21;;;;;;;8.30;6.07;;;16.40;99.90;;;;;;4307138;28;659432;-69
2022/10/23 12:39:27;;;;;;;9.53;5.50;;;17.30;99.90;;;;;;4348097;28;658401;-69
2022/10/23 12:42:19;;;;;;;6.97;4.90;;;19.50;99.90;;;;;;4343642;28;659219;-69
2022/10/23 12:45:19;;;;;;;6.73;5.03;;;20.50;96.50;;;;;;4335852;28;658836;-69
2022/10/23 12:48:06;;;;;;;9.60;5.73;;;21.30;92.80;;;;;;4331779;28;659542;-68
2022/10/23 12:50:54;;;;;;;8.77;5.20;;;21.70;85.80;;;;;;4368412;28;659290;-69
2022/10/23 12:53:41;;;;;;;6.30;4.83;;;22.10;83.80;;;;;;4349327;28;658478;-69
2022/10/23 12:56:34;;;;;;;8.07;4.97;;;22.00;81.30;;;;;;4374300;28;658778;-68
2022/10/23 12:59:25;;;;;;;8.60;5.50;;;22.10;79.80;;;;;;4334325;28;659543;-68
2022/10/23 13:02:21;;;;;;;7.73;4.80;;;21.90;78.70;;;;;;4356747;28;659719;-68
2022/10/23 13:05:12;;;;;;;6.37;4.53;;;22.60;79.70;;;;;;4345728;28;658736;-69
2022/10/23 13:07:59;;;;;;;6.23;4.47;;;21.20;79.10;;;;;;4356876;28;659302;-69
2022/10/23 13:10:46;;;;;;;6.77;4.70;;;22.50;77.10;;;;;;4355458;28;658525;-68
2022/10/23 13:13:33;;;;;;;8.20;4.60;;;21.20;79.80;;;;;;4377182;28;658612;-69
2022/10/23 13:16:23;;;;;;;7.23;4.70;;;20.80;81.00;;;;;;4347929;28;659056;-69
2022/10/23 13:19:22;;;;;;;8.97;4.90;;;20.40;83.50;;;;;;4369171;28;658670;-69
2022/10/23 13:22:16;;;;;;;6.87;4.47;;;20.40;82.90;;;;;;4372438;28;658823;-69
2022/10/23 13:25:22;;;;;;;7.10;4.77;;;20.60;85.30;;;;;;4344266;28;658994;-69
2022/10/23 13:28:21;;;;;;;6.60;4.27;;;20.50;84.40;;;;;;4347297;28;659377;-69
2022/10/23 13:31:26;;;;;;;8.17;4.67;;;20.50;85.10;;;;;;4351051;28;658560;-69
2022/10/23 13:34:24;;;;;;;6.50;4.53;;;19.30;86.90;;;;;;4344940;28;659416;-69
2022/10/23 13:37:24;;;;;;;6.33;4.10;;;19.30;93.00;;;;;;4350553;28;658543;-68
2022/10/23 13:40:22;;;;;;;6.80;4.37;;;19.30;93.60;;;;;;4317290;28;659508;-68
2022/10/23 13:43:13;;;;;;;6.50;4.80;;;19.40;93.30;;;;;;4332903;28;658402;-69
2022/10/23 13:46:00;;;;;;;8.00;4.57;;;18.40;99.10;;;;;;4319563;28;659226;-68
2022/10/23 13:48:49;;;;;;;7.67;4.50;;;20.10;93.20;;;;;;4350266;28;660456;-69
2022/10/23 13:51:38;;;;;;;6.70;4.00;;;20.20;90.40;;;;;;4334816;28;659497;-69
2022/10/23 13:54:26;;;;;;;5.67;3.87;;;19.80;92.70;;;;;;4339692;28;658568;-69
2022/10/23 13:57:14;;;;;;;7.63;4.70;;;19.20;95.80;;;;;;4357926;28;658761;-69
2022/10/23 14:00:02;;;;;;;6.60;4.00;;;19.40;94.10;;;;;;4336266;28;658535;-69
2022/10/23 14:02:49;;;;;;;7.40;4.00;;;19.10;96.50;;;;;;4357388;28;658553;-69
2022/10/23 14:05:37;;;;;;;5.37;3.50;;;19.30;94.60;;;;;;4336878;28;658954;-69
2022/10/23 14:08:24;;;;;;;8.70;4.20;;;19.50;94.40;;;;;;4357380;28;658851;-69
2022/10/23 14:11:12;;;;;;;9.60;3.90;;;19.70;94.00;;;;;;4328209;28;658574;-69
2022/10/23 14:13:59;;;;;;;7.80;3.97;;;19.20;94.30;;;;;;4358157;28;658667;-69